Time,TemperatureF,DewpointF,PressureIn,WindDirection,WindDirectionDegrees,WindSpeedMPH,WindSpeedGustMPH,Humidity,HourlyPrecipIn,Conditions,Clouds,dailyrainin,SolarRadiationWatts/m^2,SoftwareType,DateUTC
2013-03-03 01:00:00,45.0,30.0,29.84,WSW,252,11.0,-999.0,56,-99.99,,,-99.99,0.000000,,2013-03-03 08:00:00,
2013-03-03 01:54:00,45.0,30.0,29.84,WSW,252,11.0,-999.0,56,-99.99,,,-99.99,0.000000,,2013-03-03 08:54:00,
2013-03-03 02:00:00,42.0,31.0,29.82,WSW,256,6.0,-999.0,64,-99.99,,,-99.99,0.000000,,2013-03-03 09:00:00,
2013-03-03 02:52:00,42.0,31.0,29.82,WSW,256,6.0,-999.0,64,-99.99,,,-99.99,0.000000,,2013-03-03 09:52:00,
2013-03-03 03:00:00,37.0,29.0,29.79,West,263,6.0,-999.0,74,-99.99,,,-99.99,0.000000,,2013-03-03 10:00:00,
2013-03-03 03:52:00,37.0,29.0,29.79,West,263,6.0,-999.0,74,-99.99,,,-99.99,0.000000,,2013-03-03 10:52:00,
2013-03-03 04:00:00,38.0,30.0,29.77,West,277,5.0,-999.0,73,-99.99,,,-99.99,0.000000,,2013-03-03 11:00:00,
2013-03-03 04:52:00,38.0,30.0,29.77,West,277,5.0,-999.0,73,-99.99,,,-99.99,0.000000,,2013-03-03 11:52:00,
2013-03-03 05:00:00,39.0,31.0,29.76,WSW,258,4.0,-999.0,73,-99.99,,,-99.99,0.000000,,2013-03-03 12:00:00,
2013-03-03 05:53:00,39.0,31.0,29.76,WSW,258,4.0,-999.0,73,-99.99,,,-99.99,0.000000,,2013-03-03 12:53:00,
2013-03-03 06:00:00,43.0,32.0,29.75,West,266,5.0,-999.0,64,-99.99,,,-99.99,0.000000,,2013-03-03 13:00:00,
2013-03-03 06:52:00,43.0,32.0,29.75,West,266,5.0,-999.0,64,-99.99,,,-99.99,0.000000,,2013-03-03 13:52:00,
2013-03-03 07:00:00,42.0,33.0,29.74,WSW,241,5.0,-999.0,68,-99.99,,,-99.99,0.600000,,2013-03-03 14:00:00,
2013-03-03 07:52:00,42.0,33.0,29.74,WSW,241,5.0,-999.0,68,-99.99,,,-99.99,0.600000,,2013-03-03 14:52:00,
2013-03-03 08:00:00,42.0,33.0,29.72,SW,218,6.0,-999.0,68,-99.99,,,-99.99,23.160000,,2013-03-03 15:00:00,
2013-03-03 08:52:00,42.0,33.0,29.72,SW,218,6.0,-999.0,68,-99.99,,,-99.99,23.160000,,2013-03-03 15:52:00,
2013-03-03 09:00:00,44.0,33.0,29.71,West,280,3.0,-999.0,66,-99.99,,,-99.99,60.220001,,2013-03-03 16:00:00,
2013-03-03 09:52:00,44.0,33.0,29.71,West,280,3.0,-999.0,66,-99.99,,,-99.99,60.220001,,2013-03-03 16:52:00,
2013-03-03 10:00:00,47.0,33.0,29.69,SW,230,2.0,-999.0,57,-99.99,,,-99.99,103.699997,,2013-03-03 17:00:00,
2013-03-03 10:52:00,47.0,33.0,29.69,SW,230,2.0,-999.0,57,-99.99,,,-99.99,103.699997,,2013-03-03 17:52:00,
2013-03-03 11:00:00,49.0,32.0,29.68,WNW,288,5.0,-999.0,53,-99.99,,,-99.99,145.300003,,2013-03-03 18:00:00,
2013-03-03 11:52:00,49.0,32.0,29.68,WNW,288,5.0,-999.0,53,-99.99,,,-99.99,145.300003,,2013-03-03 18:52:00,
2013-03-03 12:00:00,52.0,31.0,29.66,NNW,336,5.0,-999.0,44,-99.99,,,-99.99,360.299988,,2013-03-03 19:00:00,
2013-03-03 12:52:00,52.0,31.0,29.66,NNW,336,5.0,-999.0,44,-99.99,,,-99.99,360.299988,,2013-03-03 19:52:00,
2013-03-03 13:00:00,52.0,31.0,29.63,NW,312,3.0,-999.0,44,-99.99,,,-99.99,318.799988,,2013-03-03 20:00:00,
2013-03-03 13:53:00,52.0,31.0,29.63,NW,312,3.0,-999.0,44,-99.99,,,-99.99,318.799988,,2013-03-03 20:53:00,
2013-03-03 14:00:00,38.0,35.0,29.68,NNW,339,14.0,-999.0,91,-99.99,,,-99.99,67.889999,,2013-03-03 21:00:00,
2013-03-03 14:52:00,38.0,35.0,29.68,NNW,339,14.0,-999.0,91,-99.99,,,-99.99,67.889999,,2013-03-03 21:52:00,
2013-03-03 15:00:00,32.0,31.0,29.71,NW,314,15.0,-999.0,94,-99.99,,,-99.99,28.820000,,2013-03-03 22:00:00,
2013-03-03 15:52:00,32.0,31.0,29.71,NW,314,15.0,-999.0,94,-99.99,,,-99.99,28.820000,,2013-03-03 22:52:00,
2013-03-03 16:00:00,34.0,29.0,29.70,NW,305,11.0,-999.0,80,-99.99,,,-99.99,43.779999,,2013-03-03 23:00:00,
2013-03-03 16:52:00,34.0,29.0,29.70,NW,305,11.0,-999.0,80,-99.99,,,-99.99,43.779999,,2013-03-03 23:52:00,
2013-03-03 17:00:00,32.0,29.0,29.73,NW,320,10.0,-999.0,86,-99.99,,,-99.99,14.970000,,2013-03-04 00:00:00,
2013-03-03 17:52:00,32.0,29.0,29.73,NW,320,10.0,-999.0,86,-99.99,,,-99.99,14.970000,,2013-03-04 00:52:00,
2013-03-03 18:00:00,32.0,28.0,29.74,NW,305,7.0,-999.0,84,-99.99,,,-99.99,2.630000,,2013-03-04 01:00:00,
2013-03-03 18:52:00,32.0,28.0,29.74,NW,305,7.0,-999.0,84,-99.99,,,-99.99,2.630000,,2013-03-04 01:52:00,
2013-03-03 19:00:00,34.0,26.0,29.74,NW,321,9.0,-999.0,74,-99.99,,,-99.99,0.000000,,2013-03-04 02:00:00,
2013-03-03 19:52:00,34.0,26.0,29.74,NW,321,9.0,-999.0,74,-99.99,,,-99.99,0.000000,,2013-03-04 02:52:00,
2013-03-03 20:00:00,33.0,28.0,29.76,NW,304,9.0,-999.0,80,-99.99,,,-99.99,0.000000,,2013-03-04 03:00:00,
2013-03-03 20:52:00,33.0,28.0,29.76,NW,304,9.0,-999.0,80,-99.99,,,-99.99,0.000000,,2013-03-04 03:52:00,
2013-03-03 21:00:00,31.0,21.0,29.77,WNW,283,9.0,-999.0,65,-99.99,,,-99.99,0.000000,,2013-03-04 04:00:00,
2013-03-03 21:52:00,31.0,21.0,29.77,WNW,283,9.0,-999.0,65,-99.99,,,-99.99,0.000000,,2013-03-04 04:52:00,
2013-03-03 22:00:00,28.0,18.0,29.77,West,281,12.0,-999.0,65,-99.99,,,-99.99,0.000000,,2013-03-04 05:00:00,
2013-03-03 22:52:00,28.0,18.0,29.77,West,281,12.0,-999.0,65,-99.99,,,-99.99,0.000000,,2013-03-04 05:52:00,
2013-03-03 23:00:00,27.0,18.0,29.76,West,277,14.0,-999.0,69,-99.99,,,-99.99,0.000000,,2013-03-04 06:00:00,
2013-03-03 23:52:00,27.0,18.0,29.76,West,277,14.0,-999.0,69,-99.99,,,-99.99,0.000000,,2013-03-04 06:52:00,